sensor_id;sensor_type;location;lat;lon;timestamp;temperature;humidity
8043;DHT22;4064;48.132;11.366;2024-01-25T00:01:29;7.20;99.90
8043;DHT22;4064;48.132;11.366;2024-01-25T00:03:55;7.10;99.90
8043;DHT22;4064;48.132;11.366;2024-01-25T00:06:21;7.10;99.90
8043;DHT22;4064;48.132;11.366;2024-01-25T00:08:47;7.10;99.90
8043;DHT22;4064;48.132;11.366;2024-01-25T00:11:13;7.10;99.90
8043;DHT22;4064;48.132;11.366;2024-01-25T00:13:39;7.20;99.90
8043;DHT22;4064;48.132;11.366;2024-01-25T00:16:05;7.20;99.90
8043;DHT22;4064;48.132;11.366;2024-01-25T00:18:31;7.20;99.90
8043;DHT22;4064;48.132;11.366;2024-01-25T00:20:56;7.20;99.90
8043;DHT22;4064;48.132;11.366;2024-01-25T00:23:22;7.10;99.90
8043;DHT22;4064;48.132;11.366;2024-01-25T00:25:48;7.20;99.90
8043;DHT22;4064;48.132;11.366;2024-01-25T00:28:13;7.20;99.90
8043;DHT22;4064;48.132;11.366;2024-01-25T00:30:39;7.20;99.90
8043;DHT22;4064;48.132;11.366;2024-01-25T00:33:05;7.30;99.90
8043;DHT22;4064;48.132;11.366;2024-01-25T00:35:31;7.30;99.90
8043;DHT22;4064;48.132;11.366;2024-01-25T00:37:57;7.20;99.90
8043;DHT22;4064;48.132;11.366;2024-01-25T00:40:23;7.30;99.90
8043;DHT22;4064;48.132;11.366;2024-01-25T00:42:49;7.30;99.90
8043;DHT22;4064;48.132;11.366;2024-01-25T00:45:23;7.30;99.90
8043;DHT22;4064;48.132;11.366;2024-01-25T00:47:50;7.30;99.90
8043;DHT22;4064;48.132;11.366;2024-01-25T00:50:16;7.30;99.90
8043;DHT22;4064;48.132;11.366;2024-01-25T00:52:43;7.30;99.90
8043;DHT22;4064;48.132;11.366;2024-01-25T00:55:10;7.30;99.90
8043;DHT22;4064;48.132;11.366;2024-01-25T00:57:36;7.30;99.90
8043;DHT22;4064;48.132;11.366;2024-01-25T01:00:03;7.30;99.90
8043;DHT22;4064;48.132;11.366;2024-01-25T01:02:30;7.30;99.90
8043;DHT22;4064;48.132;11.366;2024-01-25T01:05:00;7.40;99.90
8043;DHT22;4064;48.132;11.366;2024-01-25T01:07:26;7.30;99.90
8043;DHT22;4064;48.132;11.366;2024-01-25T01:09:52;7.40;99.90
8043;DHT22;4064;48.132;11.366;2024-01-25T01:12:18;7.40;99.90
8043;DHT22;4064;48.132;11.366;2024-01-25T01:14:44;7.30;99.90
8043;DHT22;4064;48.132;11.366;2024-01-25T01:17:10;7.30;99.90
8043;DHT22;4064;48.132;11.366;2024-01-25T01:19:35;7.30;99.90
8043;DHT22;4064;48.132;11.366;2024-01-25T01:22:01;7.30;99.90
8043;DHT22;4064;48.132;11.366;2024-01-25T01:24:27;7.30;99.90
8043;DHT22;4064;48.132;11.366;2024-01-25T01:26:52;7.30;99.90
8043;DHT22;4064;48.132;11.366;2024-01-25T01:29:18;7.30;99.90
8043;DHT22;4064;48.132;11.366;2024-01-25T01:31:44;7.30;99.90
8043;DHT22;4064;48.132;11.366;2024-01-25T01:34:10;7.30;99.90
8043;DHT22;4064;48.132;11.366;2024-01-25T01:36:38;7.30;99.90
8043;DHT22;4064;48.132;11.366;2024-01-25T01:39:03;7.30;99.90
8043;DHT22;4064;48.132;11.366;2024-01-25T01:41:29;7.30;99.90
8043;DHT22;4064;48.132;11.366;2024-01-25T01:43:55;7.20;99.90
8043;DHT22;4064;48.132;11.366;2024-01-25T01:46:34;7.30;99.90
8043;DHT22;4064;48.132;11.366;2024-01-25T01:49:11;7.30;99.90
8043;DHT22;4064;48.132;11.366;2024-01-25T01:51:38;7.20;99.90
8043;DHT22;4064;48.132;11.366;2024-01-25T01:54:07;7.30;99.90
8043;DHT22;4064;48.132;11.366;2024-01-25T01:56:33;7.30;99.90
8043;DHT22;4064;48.132;11.366;2024-01-25T01:59:00;7.20;99.90
8043;DHT22;4064;48.132;11.366;2024-01-25T02:01:26;7.20;99.90
8043;DHT22;4064;48.132;11.366;2024-01-25T02:03:52;7.20;99.90
8043;DHT22;4064;48.132;11.366;2024-01-25T02:06:19;7.20;99.90
8043;DHT22;4064;48.132;11.366;2024-01-25T02:08:48;7.20;99.90
8043;DHT22;4064;48.132;11.366;2024-01-25T02:11:14;7.20;99.90
8043;DHT22;4064;48.132;11.366;2024-01-25T02:13:40;7.30;99.90
8043;DHT22;4064;48.132;11.366;2024-01-25T02:16:07;7.20;99.90
8043;DHT22;4064;48.132;11.366;2024-01-25T02:18:34;7.20;99.90
8043;DHT22;4064;48.132;11.366;2024-01-25T02:20:59;7.30;99.90
8043;DHT22;4064;48.132;11.366;2024-01-25T02:23:26;7.30;99.90
8043;DHT22;4064;48.132;11.366;2024-01-25T02:25:51;7.20;99.90
8043;DHT22;4064;48.132;11.366;2024-01-25T02:28:17;7.20;99.90
8043;DHT22;4064;48.132;11.366;2024-01-25T02:30:43;7.20;99.90
8043;DHT22;4064;48.132;11.366;2024-01-25T02:33:08;7.20;99.90
8043;DHT22;4064;48.132;11.366;2024-01-25T02:35:34;7.30;99.90
8043;DHT22;4064;48.132;11.366;2024-01-25T02:38:00;7.30;99.90
8043;DHT22;4064;48.132;11.366;2024-01-25T02:40:25;7.30;99.90
8043;DHT22;4064;48.132;11.366;2024-01-25T02:42:51;7.30;99.90
8043;DHT22;4064;48.132;11.366;2024-01-25T02:45:17;7.30;99.90
8043;DHT22;4064;48.132;11.366;2024-01-25T02:47:42;7.20;99.90
8043;DHT22;4064;48.132;11.366;2024-01-25T02:50:08;7.20;99.90
8043;DHT22;4064;48.132;11.366;2024-01-25T02:52:34;7.20;99.90
8043;DHT22;4064;48.132;11.366;2024-01-25T02:55:00;7.20;99.90
8043;DHT22;4064;48.132;11.366;2024-01-25T02:57:26;7.10;99.90
8043;DHT22;4064;48.132;11.366;2024-01-25T02:59:51;7.10;99.90
8043;DHT22;4064;48.132;11.366;2024-01-25T03:02:23;7.10;99.90
8043;DHT22;4064;48.132;11.366;2024-01-25T03:05:02;7.10;99.90
8043;DHT22;4064;48.132;11.366;2024-01-25T03:07:33;7.10;99.90
8043;DHT22;4064;48.132;11.366;2024-01-25T03:09:59;7.10;99.90
8043;DHT22;4064;48.132;11.366;2024-01-25T03:12:48;7.10;99.90
8043;DHT22;4064;48.132;11.366;2024-01-25T03:15:17;7.10;99.90
8043;DHT22;4064;48.132;11.366;2024-01-25T03:17:47;7.10;99.90
8043;DHT22;4064;48.132;11.366;2024-01-25T03:20:12;7.10;99.90
8043;DHT22;4064;48.132;11.366;2024-01-25T03:22:38;7.10;99.90
8043;DHT22;4064;48.132;11.366;2024-01-25T03:25:10;7.10;99.90
8043;DHT22;4064;48.132;11.366;2024-01-25T03:27:36;7.10;99.90
8043;DHT22;4064;48.132;11.366;2024-01-25T03:30:02;7.10;99.90
8043;DHT22;4064;48.132;11.366;2024-01-25T03:32:28;7.10;99.90
8043;DHT22;4064;48.132;11.366;2024-01-25T03:35:13;7.10;99.90
8043;DHT22;4064;48.132;11.366;2024-01-25T03:38:36;7.10;99.90
8043;DHT22;4064;48.132;11.366;2024-01-25T03:41:28;7.10;99.90
8043;DHT22;4064;48.132;11.366;2024-01-25T03:44:40;7.10;99.90
8043;DHT22;4064;48.132;11.366;2024-01-25T03:47:47;7.10;99.90
8043;DHT22;4064;48.132;11.366;2024-01-25T03:50:12;7.10;99.90
8043;DHT22;4064;48.132;11.366;2024-01-25T03:52:38;7.10;99.90
8043;DHT22;4064;48.132;11.366;2024-01-25T03:55:04;7.10;99.90
8043;DHT22;4064;48.132;11.366;2024-01-25T03:57:36;7.10;99.90
8043;DHT22;4064;48.132;11.366;2024-01-25T04:00:02;7.10;99.90
8043;DHT22;4064;48.132;11.366;2024-01-25T04:02:31;7.10;99.90
8043;DHT22;4064;48.132;11.366;2024-01-25T04:04:57;7.20;99.90
8043;DHT22;4064;48.132;11.366;2024-01-25T04:07:26;7.10;99.90
8043;DHT22;4064;48.132;11.366;2024-01-25T04:10:23;7.10;99.90
8043;DHT22;4064;48.132;11.366;2024-01-25T04:12:52;7.10;99.90
8043;DHT22;4064;48.132;11.366;2024-01-25T04:15:36;7.00;99.90
8043;DHT22;4064;48.132;11.366;2024-01-25T04:18:34;7.00;99.90
8043;DHT22;4064;48.132;11.366;2024-01-25T04:24:33;7.00;99.90
8043;DHT22;4064;48.132;11.366;2024-01-25T04:26:59;7.00;99.90
8043;DHT22;4064;48.132;11.366;2024-01-25T04:29:24;7.00;99.90
8043;DHT22;4064;48.132;11.366;2024-01-25T04:31:51;7.00;99.90
8043;DHT22;4064;48.132;11.366;2024-01-25T04:35:04;7.00;99.90
8043;DHT22;4064;48.132;11.366;2024-01-25T04:38:03;7.00;99.90
8043;DHT22;4064;48.132;11.366;2024-01-25T04:40:55;6.90;99.90
8043;DHT22;4064;48.132;11.366;2024-01-25T04:43:23;7.00;99.90
8043;DHT22;4064;48.132;11.366;2024-01-25T04:45:49;6.90;99.90
8043;DHT22;4064;48.132;11.366;2024-01-25T04:48:15;6.90;99.90
8043;DHT22;4064;48.132;11.366;2024-01-25T04:50:41;6.90;99.90
8043;DHT22;4064;48.132;11.366;2024-01-25T04:53:10;6.90;99.90
8043;DHT22;4064;48.132;11.366;2024-01-25T04:55:43;6.90;99.90
8043;DHT22;4064;48.132;11.366;2024-01-25T04:58:35;6.90;99.90
8043;DHT22;4064;48.132;11.366;2024-01-25T05:01:01;6.90;99.90
8043;DHT22;4064;48.132;11.366;2024-01-25T05:03:39;6.90;99.90
8043;DHT22;4064;48.132;11.366;2024-01-25T05:06:04;6.90;99.90
8043;DHT22;4064;48.132;11.366;2024-01-25T05:08:31;6.90;99.90
8043;DHT22;4064;48.132;11.366;2024-01-25T05:11:09;6.90;99.90
8043;DHT22;4064;48.132;11.366;2024-01-25T05:14:18;6.90;99.90
8043;DHT22;4064;48.132;11.366;2024-01-25T05:16:48;6.80;99.90
8043;DHT22;4064;48.132;11.366;2024-01-25T05:19:30;6.80;99.90
8043;DHT22;4064;48.132;11.366;2024-01-25T05:22:24;6.80;99.90
8043;DHT22;4064;48.132;11.366;2024-01-25T05:25:49;6.80;99.90
8043;DHT22;4064;48.132;11.366;2024-01-25T05:28:24;6.80;99.90
8043;DHT22;4064;48.132;11.366;2024-01-25T05:30:50;6.80;99.90
8043;DHT22;4064;48.132;11.366;2024-01-25T05:33:16;6.70;99.90
8043;DHT22;4064;48.132;11.366;2024-01-25T05:35:41;6.70;99.90
8043;DHT22;4064;48.132;11.366;2024-01-25T05:38:07;6.70;99.90
8043;DHT22;4064;48.132;11.366;2024-01-25T05:40:32;6.70;99.90
8043;DHT22;4064;48.132;11.366;2024-01-25T05:43:25;6.70;99.90
8043;DHT22;4064;48.132;11.366;2024-01-25T05:46:12;6.70;99.90
8043;DHT22;4064;48.132;11.366;2024-01-25T05:48:38;6.70;99.90
8043;DHT22;4064;48.132;11.366;2024-01-25T05:51:21;6.70;99.90
8043;DHT22;4064;48.132;11.366;2024-01-25T05:54:08;6.70;99.90
8043;DHT22;4064;48.132;11.366;2024-01-25T05:56:35;6.70;99.90
8043;DHT22;4064;48.132;11.366;2024-01-25T05:59:01;6.70;99.90
8043;DHT22;4064;48.132;11.366;2024-01-25T06:01:33;6.70;99.90
8043;DHT22;4064;48.132;11.366;2024-01-25T06:03:58;6.70;99.90
8043;DHT22;4064;48.132;11.366;2024-01-25T06:06:24;6.70;99.90
8043;DHT22;4064;48.132;11.366;2024-01-25T06:08:50;6.70;99.90
8043;DHT22;4064;48.132;11.366;2024-01-25T06:11:20;6.60;99.90
8043;DHT22;4064;48.132;11.366;2024-01-25T06:13:46;6.70;99.90
8043;DHT22;4064;48.132;11.366;2024-01-25T06:16:13;6.60;99.90
8043;DHT22;4064;48.132;11.366;2024-01-25T06:18:39;6.60;99.90
8043;DHT22;4064;48.132;11.366;2024-01-25T06:21:04;6.60;99.90
8043;DHT22;4064;48.132;11.366;2024-01-25T06:24:00;6.60;99.90
8043;DHT22;4064;48.132;11.366;2024-01-25T06:26:27;6.60;99.90
8043;DHT22;4064;48.132;11.366;2024-01-25T06:28:57;6.60;99.90
8043;DHT22;4064;48.132;11.366;2024-01-25T06:31:24;6.60;99.90
8043;DHT22;4064;48.132;11.366;2024-01-25T06:34:19;6.60;99.90
8043;DHT22;4064;48.132;11.366;2024-01-25T06:36:47;6.60;99.90
8043;DHT22;4064;48.132;11.366;2024-01-25T06:39:31;6.50;99.90
8043;DHT22;4064;48.132;11.366;2024-01-25T06:42:06;6.50;99.90
8043;DHT22;4064;48.132;11.366;2024-01-25T06:44:36;6.40;99.90
8043;DHT22;4064;48.132;11.366;2024-01-25T06:47:03;6.40;99.90
8043;DHT22;4064;48.132;11.366;2024-01-25T06:49:28;6.30;99.90
8043;DHT22;4064;48.132;11.366;2024-01-25T06:51:54;6.30;99.90
8043;DHT22;4064;48.132;11.366;2024-01-25T06:54:20;6.20;99.90
8043;DHT22;4064;48.132;11.366;2024-01-25T06:56:45;6.20;99.90
8043;DHT22;4064;48.132;11.366;2024-01-25T06:59:11;6.10;99.90
8043;DHT22;4064;48.132;11.366;2024-01-25T07:01:37;6.10;99.90
8043;DHT22;4064;48.132;11.366;2024-01-25T07:04:03;6.00;99.90
8043;DHT22;4064;48.132;11.366;2024-01-25T07:06:29;6.00;99.90
8043;DHT22;4064;48.132;11.366;2024-01-25T07:08:55;6.00;99.90
8043;DHT22;4064;48.132;11.366;2024-01-25T07:11:20;5.90;99.90
8043;DHT22;4064;48.132;11.366;2024-01-25T07:13:46;5.80;99.90
8043;DHT22;4064;48.132;11.366;2024-01-25T07:16:12;5.90;99.90
8043;DHT22;4064;48.132;11.366;2024-01-25T07:18:38;5.90;99.90
8043;DHT22;4064;48.132;11.366;2024-01-25T07:21:04;5.90;99.90
8043;DHT22;4064;48.132;11.366;2024-01-25T07:23:30;5.80;99.90
8043;DHT22;4064;48.132;11.366;2024-01-25T07:25:56;5.90;99.90
8043;DHT22;4064;48.132;11.366;2024-01-25T07:28:21;5.90;99.90
8043;DHT22;4064;48.132;11.366;2024-01-25T07:30:47;5.90;99.90
8043;DHT22;4064;48.132;11.366;2024-01-25T07:33:13;5.90;99.90
8043;DHT22;4064;48.132;11.366;2024-01-25T07:35:40;5.90;99.90
8043;DHT22;4064;48.132;11.366;2024-01-25T07:38:11;5.90;99.90
8043;DHT22;4064;48.132;11.366;2024-01-25T07:40:37;5.90;99.90
8043;DHT22;4064;48.132;11.366;2024-01-25T07:43:03;5.90;99.90
8043;DHT22;4064;48.132;11.366;2024-01-25T07:45:28;6.00;99.90
8043;DHT22;4064;48.132;11.366;2024-01-25T07:47:54;6.00;99.90
8043;DHT22;4064;48.132;11.366;2024-01-25T07:50:20;6.10;99.90
8043;DHT22;4064;48.132;11.366;2024-01-25T07:52:45;6.10;99.90
8043;DHT22;4064;48.132;11.366;2024-01-25T07:55:12;6.10;99.90
8043;DHT22;4064;48.132;11.366;2024-01-25T07:57:37;6.20;99.90
8043;DHT22;4064;48.132;11.366;2024-01-25T08:00:04;6.20;99.90
8043;DHT22;4064;48.132;11.366;2024-01-25T08:02:30;6.30;99.90
8043;DHT22;4064;48.132;11.366;2024-01-25T08:04:55;6.40;99.90
8043;DHT22;4064;48.132;11.366;2024-01-25T08:07:23;6.40;99.90
8043;DHT22;4064;48.132;11.366;2024-01-25T08:09:49;6.40;99.90
8043;DHT22;4064;48.132;11.366;2024-01-25T08:12:17;6.40;99.90
8043;DHT22;4064;48.132;11.366;2024-01-25T08:14:43;6.40;99.90
8043;DHT22;4064;48.132;11.366;2024-01-25T08:17:09;6.40;99.90
8043;DHT22;4064;48.132;11.366;2024-01-25T08:19:35;6.50;99.90
8043;DHT22;4064;48.132;11.366;2024-01-25T08:22:01;6.70;99.90
8043;DHT22;4064;48.132;11.366;2024-01-25T08:24:27;7.00;99.90
8043;DHT22;4064;48.132;11.366;2024-01-25T08:26:53;7.10;99.90
8043;DHT22;4064;48.132;11.366;2024-01-25T08:29:19;7.30;99.90
8043;DHT22;4064;48.132;11.366;2024-01-25T08:31:44;7.40;99.90
8043;DHT22;4064;48.132;11.366;2024-01-25T08:34:11;7.40;99.90
8043;DHT22;4064;48.132;11.366;2024-01-25T08:36:37;7.50;99.90
8043;DHT22;4064;48.132;11.366;2024-01-25T08:39:03;7.50;99.90
8043;DHT22;4064;48.132;11.366;2024-01-25T08:41:30;7.60;99.90
8043;DHT22;4064;48.132;11.366;2024-01-25T08:43:55;7.90;99.90
8043;DHT22;4064;48.132;11.366;2024-01-25T08:46:21;7.90;99.90
8043;DHT22;4064;48.132;11.366;2024-01-25T08:48:47;7.80;99.90
8043;DHT22;4064;48.132;11.366;2024-01-25T08:51:12;7.90;99.90
8043;DHT22;4064;48.132;11.366;2024-01-25T08:53:38;7.90;99.90
8043;DHT22;4064;48.132;11.366;2024-01-25T08:56:04;8.30;99.90
8043;DHT22;4064;48.132;11.366;2024-01-25T08:58:30;9.20;99.90
8043;DHT22;4064;48.132;11.366;2024-01-25T09:00:56;10.70;99.90
8043;DHT22;4064;48.132;11.366;2024-01-25T09:03:21;10.90;99.90
8043;DHT22;4064;48.132;11.366;2024-01-25T09:05:48;10.90;99.90
8043;DHT22;4064;48.132;11.366;2024-01-25T09:08:14;10.60;99.90
8043;DHT22;4064;48.132;11.366;2024-01-25T09:10:41;11.00;99.90
8043;DHT22;4064;48.132;11.366;2024-01-25T09:13:07;11.10;99.90
8043;DHT22;4064;48.132;11.366;2024-01-25T09:15:33;9.80;99.90
8043;DHT22;4064;48.132;11.366;2024-01-25T09:17:59;9.00;99.90
8043;DHT22;4064;48.132;11.366;2024-01-25T09:20:25;8.50;99.90
8043;DHT22;4064;48.132;11.366;2024-01-25T09:22:51;8.10;99.90
8043;DHT22;4064;48.132;11.366;2024-01-25T09:25:19;8.00;99.90
8043;DHT22;4064;48.132;11.366;2024-01-25T09:27:45;7.80;99.90
8043;DHT22;4064;48.132;11.366;2024-01-25T09:30:11;8.50;99.90
8043;DHT22;4064;48.132;11.366;2024-01-25T09:32:36;8.50;99.90
8043;DHT22;4064;48.132;11.366;2024-01-25T09:35:02;8.20;99.90
8043;DHT22;4064;48.132;11.366;2024-01-25T09:37:28;8.30;99.90
8043;DHT22;4064;48.132;11.366;2024-01-25T09:39:53;9.90;99.90
8043;DHT22;4064;48.132;11.366;2024-01-25T09:42:19;11.20;99.90
8043;DHT22;4064;48.132;11.366;2024-01-25T09:44:45;11.00;99.90
8043;DHT22;4064;48.132;11.366;2024-01-25T09:47:11;12.20;99.90
8043;DHT22;4064;48.132;11.366;2024-01-25T09:49:37;11.80;99.90
8043;DHT22;4064;48.132;11.366;2024-01-25T09:52:03;10.70;99.90
8043;DHT22;4064;48.132;11.366;2024-01-25T09:54:34;10.60;99.90
8043;DHT22;4064;48.132;11.366;2024-01-25T09:57:14;10.80;99.90
8043;DHT22;4064;48.132;11.366;2024-01-25T09:59:43;9.90;99.90
8043;DHT22;4064;48.132;11.366;2024-01-25T10:02:10;9.40;99.90
8043;DHT22;4064;48.132;11.366;2024-01-25T10:04:36;9.20;99.90
8043;DHT22;4064;48.132;11.366;2024-01-25T10:07:01;9.20;99.90
8043;DHT22;4064;48.132;11.366;2024-01-25T10:09:27;9.30;99.90
8043;DHT22;4064;48.132;11.366;2024-01-25T10:11:53;9.60;99.90
8043;DHT22;4064;48.132;11.366;2024-01-25T10:14:19;9.40;99.90
8043;DHT22;4064;48.132;11.366;2024-01-25T10:16:45;9.30;99.90
8043;DHT22;4064;48.132;11.366;2024-01-25T10:19:12;9.30;99.90
8043;DHT22;4064;48.132;11.366;2024-01-25T10:21:37;9.30;99.90
8043;DHT22;4064;48.132;11.366;2024-01-25T10:24:05;9.10;99.90
8043;DHT22;4064;48.132;11.366;2024-01-25T10:26:31;8.90;99.90
8043;DHT22;4064;48.132;11.366;2024-01-25T10:28:57;8.70;99.90
8043;DHT22;4064;48.132;11.366;2024-01-25T10:31:24;8.70;99.90
8043;DHT22;4064;48.132;11.366;2024-01-25T10:33:53;8.60;99.90
8043;DHT22;4064;48.132;11.366;2024-01-25T10:36:21;8.70;99.90
8043;DHT22;4064;48.132;11.366;2024-01-25T10:38:48;8.70;99.90
8043;DHT22;4064;48.132;11.366;2024-01-25T10:41:15;8.70;99.90
8043;DHT22;4064;48.132;11.366;2024-01-25T10:43:41;8.70;99.90
8043;DHT22;4064;48.132;11.366;2024-01-25T10:46:07;8.70;99.90
8043;DHT22;4064;48.132;11.366;2024-01-25T10:48:34;8.70;99.90
8043;DHT22;4064;48.132;11.366;2024-01-25T10:51:01;8.80;99.90
8043;DHT22;4064;48.132;11.366;2024-01-25T10:53:33;8.80;99.90
8043;DHT22;4064;48.132;11.366;2024-01-25T10:56:00;8.80;99.90
8043;DHT22;4064;48.132;11.366;2024-01-25T10:58:35;8.90;99.90
8043;DHT22;4064;48.132;11.366;2024-01-25T11:01:01;8.90;99.90
8043;DHT22;4064;48.132;11.366;2024-01-25T11:03:34;9.40;99.90
8043;DHT22;4064;48.132;11.366;2024-01-25T11:08:36;9.80;99.90
8043;DHT22;4064;48.132;11.366;2024-01-25T11:11:06;9.70;99.90
8043;DHT22;4064;48.132;11.366;2024-01-25T11:13:34;9.60;99.90
8043;DHT22;4064;48.132;11.366;2024-01-25T11:16:14;10.00;99.90
8043;DHT22;4064;48.132;11.366;2024-01-25T11:18:50;10.20;99.90
8043;DHT22;4064;48.132;11.366;2024-01-25T11:21:37;10.40;99.90
8043;DHT22;4064;48.132;11.366;2024-01-25T11:24:03;10.70;99.90
8043;DHT22;4064;48.132;11.366;2024-01-25T11:26:32;10.60;99.90
8043;DHT22;4064;48.132;11.366;2024-01-25T11:28:58;10.40;99.90
8043;DHT22;4064;48.132;11.366;2024-01-25T11:31:26;10.30;99.90
8043;DHT22;4064;48.132;11.366;2024-01-25T11:33:59;10.00;99.90
8043;DHT22;4064;48.132;11.366;2024-01-25T11:36:26;9.50;99.90
8043;DHT22;4064;48.132;11.366;2024-01-25T11:38:52;9.30;99.90
8043;DHT22;4064;48.132;11.366;2024-01-25T11:41:18;9.10;99.90
8043;DHT22;4064;48.132;11.366;2024-01-25T11:43:44;9.10;99.90
8043;DHT22;4064;48.132;11.366;2024-01-25T11:46:10;9.20;99.90
8043;DHT22;4064;48.132;11.366;2024-01-25T11:48:40;9.20;99.90
8043;DHT22;4064;48.132;11.366;2024-01-25T11:51:08;9.20;99.90
8043;DHT22;4064;48.132;11.366;2024-01-25T11:53:34;9.70;99.90
8043;DHT22;4064;48.132;11.366;2024-01-25T11:56:00;10.10;99.90
8043;DHT22;4064;48.132;11.366;2024-01-25T11:58:26;10.30;99.90
8043;DHT22;4064;48.132;11.366;2024-01-25T12:00:52;10.50;99.90
8043;DHT22;4064;48.132;11.366;2024-01-25T12:03:18;10.50;99.90
8043;DHT22;4064;48.132;11.366;2024-01-25T12:05:44;10.60;99.90
8043;DHT22;4064;48.132;11.366;2024-01-25T12:08:13;10.80;99.90
8043;DHT22;4064;48.132;11.366;2024-01-25T12:10:38;10.50;99.90
8043;DHT22;4064;48.132;11.366;2024-01-25T12:13:07;10.40;99.90
8043;DHT22;4064;48.132;11.366;2024-01-25T12:15:33;10.40;99.90
8043;DHT22;4064;48.132;11.366;2024-01-25T12:18:00;10.60;99.90
8043;DHT22;4064;48.132;11.366;2024-01-25T12:20:26;10.70;99.90
8043;DHT22;4064;48.132;11.366;2024-01-25T12:22:52;11.10;99.90
8043;DHT22;4064;48.132;11.366;2024-01-25T12:25:18;11.30;99.90
8043;DHT22;4064;48.132;11.366;2024-01-25T12:27:43;11.40;99.90
8043;DHT22;4064;48.132;11.366;2024-01-25T12:30:12;11.40;99.90
8043;DHT22;4064;48.132;11.366;2024-01-25T12:32:38;11.50;99.90
8043;DHT22;4064;48.132;11.366;2024-01-25T12:35:05;11.60;99.90
8043;DHT22;4064;48.132;11.366;2024-01-25T12:37:30;11.60;99.90
8043;DHT22;4064;48.132;11.366;2024-01-25T12:39:56;11.90;99.90
8043;DHT22;4064;48.132;11.366;2024-01-25T12:42:22;11.70;99.90
8043;DHT22;4064;48.132;11.366;2024-01-25T12:44:51;11.70;99.90
8043;DHT22;4064;48.132;11.366;2024-01-25T12:47:17;11.70;99.90
8043;DHT22;4064;48.132;11.366;2024-01-25T12:49:43;11.90;99.90
8043;DHT22;4064;48.132;11.366;2024-01-25T12:52:13;12.00;99.90
8043;DHT22;4064;48.132;11.366;2024-01-25T12:54:40;11.90;99.90
8043;DHT22;4064;48.132;11.366;2024-01-25T12:57:06;11.40;99.90
8043;DHT22;4064;48.132;11.366;2024-01-25T12:59:33;11.30;99.90
8043;DHT22;4064;48.132;11.366;2024-01-25T13:01:59;11.20;99.90
8043;DHT22;4064;48.132;11.366;2024-01-25T13:04:24;11.00;99.90
8043;DHT22;4064;48.132;11.366;2024-01-25T13:06:52;10.80;99.90
8043;DHT22;4064;48.132;11.366;2024-01-25T13:09:20;10.60;99.90
8043;DHT22;4064;48.132;11.366;2024-01-25T13:11:46;10.70;99.90
8043;DHT22;4064;48.132;11.366;2024-01-25T13:14:12;10.70;99.90
8043;DHT22;4064;48.132;11.366;2024-01-25T13:16:38;10.70;99.90
8043;DHT22;4064;48.132;11.366;2024-01-25T13:19:04;10.90;99.90
8043;DHT22;4064;48.132;11.366;2024-01-25T13:21:29;11.20;99.90
8043;DHT22;4064;48.132;11.366;2024-01-25T13:23:55;11.40;99.90
8043;DHT22;4064;48.132;11.366;2024-01-25T13:26:21;11.60;99.90
8043;DHT22;4064;48.132;11.366;2024-01-25T13:28:46;11.60;99.90
8043;DHT22;4064;48.132;11.366;2024-01-25T13:31:12;11.70;99.90
8043;DHT22;4064;48.132;11.366;2024-01-25T13:33:38;11.50;99.90
8043;DHT22;4064;48.132;11.366;2024-01-25T13:36:03;11.30;99.90
8043;DHT22;4064;48.132;11.366;2024-01-25T13:38:34;11.10;99.90
8043;DHT22;4064;48.132;11.366;2024-01-25T13:41:00;10.90;99.90
8043;DHT22;4064;48.132;11.366;2024-01-25T13:43:25;10.90;99.90
8043;DHT22;4064;48.132;11.366;2024-01-25T13:45:51;10.90;99.90
8043;DHT22;4064;48.132;11.366;2024-01-25T13:48:17;10.80;99.90
8043;DHT22;4064;48.132;11.366;2024-01-25T13:50:44;10.70;99.90
8043;DHT22;4064;48.132;11.366;2024-01-25T13:53:10;10.50;99.90
8043;DHT22;4064;48.132;11.366;2024-01-25T13:55:36;10.40;99.90
8043;DHT22;4064;48.132;11.366;2024-01-25T13:58:01;10.30;99.90
8043;DHT22;4064;48.132;11.366;2024-01-25T14:00:27;10.00;99.90
8043;DHT22;4064;48.132;11.366;2024-01-25T14:02:53;10.00;99.90
8043;DHT22;4064;48.132;11.366;2024-01-25T14:05:19;9.90;99.90
8043;DHT22;4064;48.132;11.366;2024-01-25T14:07:45;9.90;99.90
8043;DHT22;4064;48.132;11.366;2024-01-25T14:10:11;9.80;99.90
8043;DHT22;4064;48.132;11.366;2024-01-25T14:12:37;9.70;99.90
8043;DHT22;4064;48.132;11.366;2024-01-25T14:15:03;9.70;99.90
8043;DHT22;4064;48.132;11.366;2024-01-25T14:17:29;9.70;99.90
8043;DHT22;4064;48.132;11.366;2024-01-25T14:19:55;9.70;99.90
8043;DHT22;4064;48.132;11.366;2024-01-25T14:22:21;9.70;99.90
8043;DHT22;4064;48.132;11.366;2024-01-25T14:24:47;9.70;99.90
8043;DHT22;4064;48.132;11.366;2024-01-25T14:27:13;9.70;99.90
8043;DHT22;4064;48.132;11.366;2024-01-25T14:29:38;9.50;99.90
8043;DHT22;4064;48.132;11.366;2024-01-25T14:32:04;9.50;99.90
8043;DHT22;4064;48.132;11.366;2024-01-25T14:34:30;9.40;99.90
8043;DHT22;4064;48.132;11.366;2024-01-25T14:36:55;9.40;99.90
8043;DHT22;4064;48.132;11.366;2024-01-25T14:39:21;9.30;99.90
8043;DHT22;4064;48.132;11.366;2024-01-25T14:41:47;9.30;99.90
8043;DHT22;4064;48.132;11.366;2024-01-25T14:44:13;9.20;99.90
8043;DHT22;4064;48.132;11.366;2024-01-25T14:46:38;9.20;99.90
8043;DHT22;4064;48.132;11.366;2024-01-25T14:49:04;9.10;99.90
8043;DHT22;4064;48.132;11.366;2024-01-25T14:58:14;9.00;99.90
8043;DHT22;4064;48.132;11.366;2024-01-25T15:00:48;8.90;99.90
8043;DHT22;4064;48.132;11.366;2024-01-25T15:03:13;8.90;99.90
8043;DHT22;4064;48.132;11.366;2024-01-25T15:05:39;8.90;99.90
8043;DHT22;4064;48.132;11.366;2024-01-25T15:08:05;8.80;99.90
8043;DHT22;4064;48.132;11.366;2024-01-25T15:10:31;8.80;99.90
8043;DHT22;4064;48.132;11.366;2024-01-25T15:12:57;8.80;99.90
8043;DHT22;4064;48.132;11.366;2024-01-25T15:15:25;8.80;99.90
8043;DHT22;4064;48.132;11.366;2024-01-25T15:17:56;8.70;99.90
8043;DHT22;4064;48.132;11.366;2024-01-25T15:20:22;8.70;99.90
8043;DHT22;4064;48.132;11.366;2024-01-25T15:22:49;8.60;99.90
8043;DHT22;4064;48.132;11.366;2024-01-25T15:25:14;8.60;99.90
8043;DHT22;4064;48.132;11.366;2024-01-25T15:27:40;8.60;99.90
8043;DHT22;4064;48.132;11.366;2024-01-25T15:30:06;8.60;99.90
8043;DHT22;4064;48.132;11.366;2024-01-25T15:32:34;8.50;99.90
8043;DHT22;4064;48.132;11.366;2024-01-25T15:35:00;8.40;99.90
8043;DHT22;4064;48.132;11.366;2024-01-25T15:37:25;8.40;99.90
8043;DHT22;4064;48.132;11.366;2024-01-25T15:39:51;8.30;99.90
8043;DHT22;4064;48.132;11.366;2024-01-25T15:42:16;8.30;99.90
8043;DHT22;4064;48.132;11.366;2024-01-25T15:44:42;8.20;99.90
8043;DHT22;4064;48.132;11.366;2024-01-25T15:47:08;8.20;99.90
8043;DHT22;4064;48.132;11.366;2024-01-25T15:49:33;8.10;99.90
8043;DHT22;4064;48.132;11.366;2024-01-25T15:51:59;8.10;99.90
8043;DHT22;4064;48.132;11.366;2024-01-25T15:54:26;8.00;99.90
8043;DHT22;4064;48.132;11.366;2024-01-25T15:56:51;7.90;99.90
8043;DHT22;4064;48.132;11.366;2024-01-25T15:59:17;7.90;99.90
8043;DHT22;4064;48.132;11.366;2024-01-25T16:04:55;7.80;99.90
8043;DHT22;4064;48.132;11.366;2024-01-25T16:07:21;7.70;99.90
8043;DHT22;4064;48.132;11.366;2024-01-25T16:09:47;7.70;99.90
8043;DHT22;4064;48.132;11.366;2024-01-25T16:12:12;7.70;99.90
8043;DHT22;4064;48.132;11.366;2024-01-25T16:14:38;7.60;99.90
8043;DHT22;4064;48.132;11.366;2024-01-25T16:17:04;7.60;99.90
8043;DHT22;4064;48.132;11.366;2024-01-25T16:19:30;7.60;99.90
8043;DHT22;4064;48.132;11.366;2024-01-25T16:21:55;7.50;99.90
8043;DHT22;4064;48.132;11.366;2024-01-25T16:24:21;7.50;99.90